createdAt,value
2022-10-17T00:00:21.107Z,9.800000
2022-10-17T00:05:24.507Z,9.800000
2022-10-17T00:10:27.037Z,9.800000
2022-10-17T00:15:24.496Z,9.836364
2022-10-17T00:20:21.187Z,9.900000
2022-10-17T00:25:24.509Z,9.970000
2022-10-17T00:30:27.345Z,10.058333
2022-10-17T00:35:24.580Z,10.160000
2022-10-17T00:40:21.793Z,10.290909
2022-10-17T00:45:24.615Z,10.390909
2022-10-17T00:50:27.870Z,10.400000
2022-10-17T00:55:18.711Z,10.400000
2022-10-17T01:00:24.563Z,10.320000
2022-10-17T01:05:25.058Z,10.281818
2022-10-17T01:10:24.618Z,10.200000
2022-10-17T01:15:19.259Z,10.200000
2022-10-17T01:20:24.531Z,10.200000
2022-10-17T01:25:25.983Z,10.200000
2022-10-17T01:30:24.560Z,10.175000
2022-10-17T01:35:19.825Z,10.066667
2022-10-17T01:40:24.615Z,10.000000
2022-10-17T01:45:26.056Z,10.000000
2022-10-17T01:50:24.520Z,10.000000
2022-10-17T01:55:20.221Z,10.000000
2022-10-17T02:00:24.576Z,10.000000
2022-10-17T02:05:26.493Z,10.000000
2022-10-17T02:10:24.573Z,10.000000
2022-10-17T02:15:20.922Z,10.000000
2022-10-17T02:20:24.562Z,10.000000
2022-10-17T02:25:27.236Z,10.025000
2022-10-17T02:30:30.452Z,10.111111
2022-10-17T02:35:21.435Z,10.277778
2022-10-17T02:40:36.646Z,10.461538
2022-10-17T02:45:24.554Z,10.640000
2022-10-17T02:50:24.602Z,10.830000
2022-10-17T02:55:24.556Z,10.977778
2022-10-17T03:00:25.321Z,11.070000
2022-10-17T03:05:24.591Z,11.040000
2022-10-17T03:10:19.103Z,11.000000
2022-10-17T03:15:24.678Z,10.975000
2022-10-17T03:20:25.526Z,10.900000
2022-10-17T03:25:24.535Z,10.827273
2022-10-17T03:30:19.730Z,10.900000
2022-10-17T03:35:24.583Z,11.000000
2022-10-17T03:40:25.917Z,11.000000
2022-10-17T03:45:24.714Z,10.909091
2022-10-17T03:50:20.028Z,10.840000
2022-10-17T03:55:24.495Z,10.800000
2022-10-17T04:00:26.345Z,10.750000
2022-10-17T04:05:25.280Z,10.700000
2022-10-17T04:10:20.572Z,10.623077
2022-10-17T04:15:23.624Z,10.566667
2022-10-17T04:20:27.033Z,10.500000
2022-10-17T04:25:24.581Z,10.500000
2022-10-17T04:30:21.256Z,10.500000
2022-10-17T04:35:24.637Z,10.500000
2022-10-17T04:40:27.254Z,10.500000
2022-10-17T04:45:30.428Z,10.500000
2022-10-17T04:50:21.406Z,10.570000
2022-10-17T04:55:25.266Z,10.790909
2022-10-17T05:00:27.698Z,11.033333
2022-10-17T05:05:24.585Z,11.222222
2022-10-17T05:10:21.782Z,11.223077
2022-10-17T05:15:25.150Z,11.200000
2022-10-17T05:20:24.878Z,11.290000
2022-10-17T05:25:19.463Z,11.390000
2022-10-17T05:30:24.574Z,11.500000
2022-10-17T05:35:25.694Z,11.622222
2022-10-17T05:40:24.654Z,11.784615
2022-10-17T05:45:19.876Z,11.963636
2022-10-17T05:50:24.617Z,12.141667
2022-10-17T05:55:26.386Z,12.270000
2022-10-17T06:00:24.621Z,12.433333
2022-10-17T06:05:20.227Z,12.580000
2022-10-17T06:10:24.645Z,12.744444
2022-10-17T06:15:26.611Z,12.871429
2022-10-17T06:20:24.744Z,12.900000
2022-10-17T06:25:20.696Z,12.900000
2022-10-17T06:30:24.561Z,12.990000
2022-10-17T06:35:27.605Z,13.087500
2022-10-17T06:40:24.624Z,13.208333
2022-10-17T06:45:21.475Z,13.360000
2022-10-17T06:50:24.244Z,13.545455
2022-10-17T06:55:27.366Z,13.744444
2022-10-17T07:00:24.661Z,13.863636
2022-10-17T07:05:21.519Z,14.091667
2022-10-17T07:10:36.749Z,14.381818
2022-10-17T07:15:24.771Z,14.611111
2022-10-17T07:20:19.277Z,14.700000
2022-10-17T07:25:24.676Z,14.755556
2022-10-17T07:30:25.470Z,14.900000
2022-10-17T07:35:24.869Z,15.000000
2022-10-17T07:40:19.755Z,15.100000
2022-10-17T07:45:24.612Z,15.170000
2022-10-17T07:50:25.915Z,15.262500
2022-10-17T07:55:24.666Z,15.320000
2022-10-17T08:00:20.269Z,15.427273
2022-10-17T08:05:23.210Z,15.560000
2022-10-17T08:10:26.275Z,15.700000
2022-10-17T08:15:27.958Z,15.875000
2022-10-17T08:20:21.060Z,15.981818
2022-10-17T08:25:24.741Z,16.000000
2022-10-17T08:30:27.123Z,16.145455
2022-10-17T08:35:24.576Z,16.227273
2022-10-17T08:40:21.110Z,16.327273
2022-10-17T08:45:24.666Z,16.400000
2022-10-17T08:50:27.522Z,16.500000
2022-10-17T08:55:24.665Z,16.600000
2022-10-17T09:00:24.619Z,16.645455
2022-10-17T09:05:26.599Z,16.700000
2022-10-17T09:10:27.953Z,16.766667
2022-10-17T09:15:18.949Z,16.800000
2022-10-17T09:20:24.645Z,16.866667
2022-10-17T09:25:25.468Z,16.977778
2022-10-17T09:30:40.468Z,16.980000
2022-10-17T09:35:19.549Z,16.909091
2022-10-17T09:40:24.607Z,16.900000
2022-10-17T09:45:25.768Z,16.945455
2022-10-17T09:50:24.674Z,17.000000
2022-10-17T09:55:20.014Z,17.000000
2022-10-17T10:00:24.761Z,17.050000
2022-10-17T10:05:26.290Z,17.145455
2022-10-17T10:10:26.218Z,17.275000
2022-10-17T10:15:20.709Z,17.300000
2022-10-17T10:20:23.771Z,17.400000
2022-10-17T10:25:26.804Z,17.444444
2022-10-17T10:30:24.662Z,17.500000
2022-10-17T10:35:20.982Z,17.516667
2022-10-17T10:40:24.630Z,17.366667
2022-10-17T10:46:02.653Z,17.244444
2022-10-17T10:50:24.648Z,17.218182
2022-10-17T10:55:21.437Z,17.418182
2022-10-17T11:00:24.595Z,17.566667
2022-10-17T11:05:24.565Z,17.585714
2022-10-17T11:10:24.591Z,17.450000
2022-10-17T11:15:24.613Z,17.400000
2022-10-17T11:20:25.648Z,17.409091
2022-10-17T11:25:24.602Z,17.500000
2022-10-17T11:30:19.599Z,17.500000
2022-10-17T11:35:24.561Z,17.500000
2022-10-17T11:40:26.558Z,17.450000
2022-10-17T11:45:24.623Z,17.430000
2022-10-17T11:55:24.665Z,17.400000
2022-10-17T12:00:26.492Z,17.375000
2022-10-17T12:05:24.667Z,17.400000
2022-10-17T12:10:20.400Z,17.309091
2022-10-17T12:15:24.632Z,17.300000
2022-10-17T12:20:26.938Z,17.300000
2022-10-17T12:25:24.674Z,17.300000
2022-10-17T12:30:21.134Z,17.276923
2022-10-17T12:35:24.589Z,17.200000
2022-10-17T12:40:27.361Z,17.118182
2022-10-17T12:45:24.685Z,17.100000
2022-10-17T12:50:21.740Z,17.000000
2022-10-17T12:55:36.731Z,17.000000
2022-10-17T13:00:24.854Z,16.954545
2022-10-17T13:05:24.580Z,16.900000
2022-10-17T13:10:21.986Z,16.840000
2022-10-17T13:15:25.020Z,16.800000
2022-10-17T13:20:27.667Z,16.700000
2022-10-17T13:25:19.335Z,16.641667
2022-10-17T13:30:27.907Z,16.600000
2022-10-17T13:35:42.015Z,16.477778
2022-10-17T13:40:48.395Z,16.400000
2022-10-17T13:45:19.585Z,16.372727
2022-10-17T13:50:42.983Z,16.300000
2022-10-17T13:55:25.979Z,16.263636
2022-10-17T14:00:24.753Z,16.150000
2022-10-17T14:05:20.614Z,16.077778
2022-10-17T14:10:24.727Z,15.945455
2022-10-17T14:15:26.468Z,15.830000
2022-10-17T14:21:07.780Z,15.800000
2022-10-17T14:21:40.920Z,15.800000
2022-10-17T14:25:21.059Z,15.681818
2022-10-17T14:30:38.728Z,15.590000
2022-10-17T14:35:42.459Z,15.481818
2022-10-17T14:40:24.622Z,15.350000
2022-10-17T14:45:23.639Z,15.200000
2022-10-17T14:50:24.638Z,15.054545
2022-10-17T14:55:27.616Z,14.971429
2022-10-17T15:00:24.651Z,14.872727
2022-10-17T15:05:24.564Z,14.777778
2022-10-17T15:10:25.153Z,14.658333
2022-10-17T15:15:24.591Z,14.587500
2022-10-17T15:20:19.387Z,14.500000
2022-10-17T15:25:24.654Z,14.411111
2022-10-17T15:30:25.714Z,14.384615
2022-10-17T15:35:24.993Z,14.290909
2022-10-17T15:40:19.862Z,14.140000
2022-10-17T15:45:24.668Z,13.980000
2022-10-17T15:50:26.157Z,13.850000
2022-10-17T15:55:24.628Z,13.736364
2022-10-17T16:00:20.181Z,13.636364
2022-10-17T16:05:24.566Z,13.540000
2022-10-17T16:10:26.530Z,13.470000
2022-10-17T16:15:24.644Z,13.375000
2022-10-17T16:20:20.927Z,13.200000
2022-10-17T16:25:24.722Z,13.020000
2022-10-17T16:30:27.066Z,12.840000
2022-10-17T16:35:24.710Z,12.681818
2022-10-17T16:40:21.739Z,12.550000
2022-10-17T16:45:25.085Z,12.410000
2022-10-17T16:50:27.505Z,12.236364
2022-10-17T16:55:24.635Z,12.033333
2022-10-17T17:00:21.795Z,11.880000
2022-10-17T17:05:24.884Z,11.741667
2022-10-17T17:10:24.571Z,11.592308
2022-10-17T17:15:18.895Z,11.475000
2022-10-17T17:20:24.616Z,11.400000
2022-10-17T17:25:25.674Z,11.344444
2022-10-17T17:30:24.661Z,11.291667
2022-10-17T17:35:19.538Z,11.200000
2022-10-17T17:40:25.080Z,11.100000
2022-10-17T17:45:25.961Z,11.010000
2022-10-17T17:50:25.160Z,10.970000
2022-10-17T17:55:19.913Z,10.900000
2022-10-17T18:00:25.054Z,10.827273
2022-10-17T18:05:26.199Z,10.777778
2022-10-17T18:10:29.450Z,10.700000
2022-10-17T18:15:20.360Z,10.625000
2022-10-17T18:20:25.108Z,10.600000
2022-10-17T18:25:26.907Z,10.560000
2022-10-17T18:30:27.200Z,10.500000
2022-10-17T18:35:20.851Z,10.500000
2022-10-17T18:40:25.917Z,10.410000
2022-10-17T18:45:29.932Z,10.314286
2022-10-17T18:50:25.261Z,10.255556
2022-10-17T18:55:21.336Z,10.200000
2022-10-17T19:00:24.390Z,10.200000
2022-10-17T19:05:27.513Z,10.200000
2022-10-17T19:10:25.205Z,10.225000
2022-10-17T19:15:23.827Z,10.200000
2022-10-17T19:20:25.146Z,10.190000
2022-10-17T19:25:28.230Z,10.100000
2022-10-17T19:30:19.241Z,10.045455
2022-10-17T19:35:22.369Z,9.957143
2022-10-17T19:40:25.625Z,9.850000
2022-10-17T19:45:26.356Z,9.800000
2022-10-17T19:50:20.113Z,9.800000
2022-10-17T19:55:25.690Z,9.800000
2022-10-17T20:00:25.951Z,9.714286
2022-10-17T20:05:28.051Z,9.641667
2022-10-17T20:10:20.066Z,9.600000
2022-10-17T20:15:25.631Z,9.600000
2022-10-17T20:20:26.477Z,9.623077
2022-10-17T20:25:25.732Z,9.700000
2022-10-17T20:30:20.955Z,9.777778
2022-10-17T20:35:23.803Z,9.800000
2022-10-17T20:40:35.154Z,9.800000
2022-10-17T20:45:37.601Z,9.800000
2022-10-17T20:50:22.390Z,9.800000
2022-10-17T20:55:26.069Z,9.800000
2022-10-17T21:00:27.344Z,9.670000
2022-10-17T21:05:26.112Z,9.500000
2022-10-17T21:10:34.812Z,9.354545
2022-10-17T21:15:26.432Z,9.222222
2022-10-17T21:20:28.079Z,9.200000
2022-10-17T21:25:18.988Z,9.200000
2022-10-17T21:30:22.254Z,9.200000
2022-10-17T21:35:26.479Z,9.200000
2022-10-17T21:40:28.460Z,9.300000
2022-10-17T21:45:25.397Z,9.400000
2022-10-17T21:50:23.857Z,9.383333
2022-10-17T21:55:26.523Z,9.266667
2022-10-17T22:00:28.880Z,9.155556
2022-10-17T22:05:20.129Z,9.100000
2022-10-17T22:10:23.066Z,9.100000
2022-10-17T22:15:26.475Z,9.100000
2022-10-17T22:20:29.560Z,9.100000
2022-10-17T22:25:20.670Z,9.027273
2022-10-17T22:30:26.589Z,8.966667
2022-10-17T22:35:26.958Z,8.855556
2022-10-17T22:40:26.847Z,8.733333
2022-10-17T22:45:21.487Z,8.633333
2022-10-17T22:50:26.894Z,8.600000
2022-10-17T22:55:27.519Z,8.600000
2022-10-17T23:00:32.433Z,8.663636
2022-10-17T23:05:21.373Z,8.745455
2022-10-17T23:10:27.011Z,8.836364
2022-10-17T23:15:27.628Z,8.937500
2022-10-17T23:20:18.972Z,9.045455
2022-10-17T23:25:22.235Z,9.125000
2022-10-17T23:30:27.518Z,9.200000
2022-10-17T23:35:28.386Z,9.310000
2022-10-17T23:40:19.447Z,9.427273
2022-10-17T23:45:22.780Z,9.500000
2022-10-17T23:50:27.442Z,9.500000
2022-10-17T23:55:28.876Z,9.500000
